RYR64E EBCI-LEMH
Flight info
| Callsign | RYR64E |
|---|---|
| Flight time | N/A |
| Altitude | 37000 |
| Route | CIV N872 LESDO DCT KOVIN DCT DUCRA DCT RESMI DCT DEKOD DCT DISAK DCT DIRMO DCT ETAMO DCT ADEKA DCT MOKDI DCT MEN DCT BADAM DCT KANIG DCT BGR L16 SARGO |
| Aircraft | B738/M-SDE2E3FGHIRWXY/LB1 |
Departure
| Time | N/A |
|---|---|
| Airport | Brussels South Charleroi Airport (EBCI) |
Arrival
| Time | 2026-04-24 21:45 |
|---|---|
| Airport | Menorca Airport (LEMH) |
| Time | Latitude | Longitude | Altitude | Speed | Heading |
|---|---|---|---|---|---|
| 2026-04-24 20:57 | 43.89984 | 3.14889 | 37161 ft | 437 kts | 185° |
| 2026-04-24 20:57 | 43.86959 | 3.14513 | 37164 ft | 437 kts | 185° |
| 2026-04-24 20:57 | 43.80898 | 3.13783 | 37157 ft | 437 kts | 185° |
| 2026-04-24 20:58 | 43.74869 | 3.13067 | 37147 ft | 438 kts | 185° |
| 2026-04-24 20:58 | 43.68786 | 3.12347 | 37153 ft | 438 kts | 185° |
| 2026-04-24 20:59 | 43.62703 | 3.11627 | 37143 ft | 439 kts | 185° |
| 2026-04-24 20:59 | 43.56615 | 3.10907 | 37134 ft | 439 kts | 185° |
| 2026-04-24 21:00 | 43.50523 | 3.10188 | 37134 ft | 440 kts | 185° |
| 2026-04-24 21:00 | 43.44418 | 3.09468 | 37135 ft | 440 kts | 185° |
| 2026-04-24 21:01 | 43.38308 | 3.08750 | 37131 ft | 441 kts | 185° |
| 2026-04-24 21:01 | 43.32192 | 3.08033 | 37133 ft | 441 kts | 185° |
| 2026-04-24 21:02 | 43.26072 | 3.07316 | 37130 ft | 442 kts | 185° |
| 2026-04-24 21:02 | 43.19938 | 3.06600 | 37131 ft | 442 kts | 185° |
| 2026-04-24 21:03 | 43.13818 | 3.05873 | 37130 ft | 442 kts | 185° |
| 2026-04-24 21:03 | 43.07730 | 3.05175 | 37135 ft | 441 kts | 185° |
| 2026-04-24 21:04 | 43.01610 | 3.04468 | 37127 ft | 441 kts | 185° |
| 2026-04-24 21:04 | 42.95505 | 3.03760 | 37124 ft | 440 kts | 185° |
| 2026-04-24 21:05 | 42.90400 | 3.03169 | 37131 ft | 439 kts | 185° |
| 2026-04-24 21:05 | 42.84317 | 3.02466 | 37129 ft | 438 kts | 185° |
| 2026-04-24 21:06 | 42.77269 | 3.01654 | 37131 ft | 437 kts | 185° |
| 2026-04-24 21:06 | 42.72193 | 3.01070 | 37130 ft | 436 kts | 185° |
| 2026-04-24 21:07 | 42.66145 | 3.00376 | 37132 ft | 436 kts | 185° |
| 2026-04-24 21:07 | 42.60140 | 2.99688 | 37130 ft | 436 kts | 185° |
| 2026-04-24 21:08 | 42.54103 | 2.98997 | 37128 ft | 436 kts | 185° |
| 2026-04-24 21:08 | 42.48051 | 2.98709 | 37127 ft | 436 kts | 174° |
| 2026-04-24 21:09 | 42.45072 | 2.99413 | 37124 ft | 436 kts | 163° |
| 2026-04-24 21:09 | 42.42177 | 3.00626 | 37143 ft | 435 kts | 162° |
| 2026-04-24 21:09 | 42.36406 | 3.03186 | 37129 ft | 437 kts | 161° |
| 2026-04-24 21:10 | 42.30620 | 3.05714 | 37136 ft | 438 kts | 162° |
| 2026-04-24 21:10 | 42.24806 | 3.08203 | 37142 ft | 439 kts | 162° |
| 2026-04-24 21:11 | 42.18992 | 3.10671 | 37137 ft | 441 kts | 162° |
| 2026-04-24 21:11 | 42.13124 | 3.13158 | 37131 ft | 443 kts | 162° |
| 2026-04-24 21:12 | 42.07239 | 3.15649 | 37135 ft | 444 kts | 162° |
| 2026-04-24 21:12 | 42.01337 | 3.18143 | 37136 ft | 445 kts | 162° |
| 2026-04-24 21:13 | 41.95425 | 3.20650 | 37139 ft | 445 kts | 160° |
| 2026-04-24 21:13 | 41.89840 | 3.24180 | 37090 ft | 445 kts | 151° |
| 2026-04-24 21:14 | 41.87111 | 3.26158 | 36746 ft | 445 kts | 151° |
| 2026-04-24 21:14 | 41.84403 | 3.28110 | 36382 ft | 439 kts | 151° |
| 2026-04-24 21:14 | 41.81724 | 3.30010 | 36024 ft | 434 kts | 151° |
| 2026-04-24 21:14 | 41.79065 | 3.31895 | 35623 ft | 430 kts | 151° |
| 2026-04-24 21:15 | 41.76426 | 3.33737 | 35238 ft | 427 kts | 151° |
| 2026-04-24 21:15 | 41.73797 | 3.35554 | 34854 ft | 423 kts | 151° |
| 2026-04-24 21:15 | 41.71189 | 3.37354 | 34435 ft | 422 kts | 151° |
| 2026-04-24 21:15 | 41.68594 | 3.39156 | 34026 ft | 419 kts | 151° |
| 2026-04-24 21:16 | 41.66011 | 3.40951 | 33596 ft | 416 kts | 151° |
| 2026-04-24 21:16 | 41.63450 | 3.42728 | 33201 ft | 413 kts | 151° |
| 2026-04-24 21:16 | 41.60909 | 3.44485 | 32818 ft | 409 kts | 151° |
| 2026-04-24 21:16 | 41.58389 | 3.46227 | 32444 ft | 406 kts | 151° |
| 2026-04-24 21:17 | 41.55884 | 3.47947 | 32078 ft | 403 kts | 152° |
| 2026-04-24 21:17 | 41.53397 | 3.49639 | 31717 ft | 400 kts | 152° |
| 2026-04-24 21:17 | 41.50920 | 3.51338 | 31338 ft | 398 kts | 152° |
| 2026-04-24 21:17 | 41.48498 | 3.53006 | 30977 ft | 396 kts | 152° |
| 2026-04-24 21:18 | 41.46025 | 3.54709 | 30615 ft | 394 kts | 152° |
| 2026-04-24 21:18 | 41.43626 | 3.56360 | 30268 ft | 392 kts | 152° |
| 2026-04-24 21:18 | 41.41179 | 3.58040 | 29860 ft | 390 kts | 152° |
| 2026-04-24 21:18 | 41.38773 | 3.59689 | 29463 ft | 387 kts | 152° |
| 2026-04-24 21:19 | 41.36417 | 3.61302 | 29087 ft | 384 kts | 152° |
| 2026-04-24 21:19 | 41.34053 | 3.62918 | 28718 ft | 381 kts | 152° |
| 2026-04-24 21:19 | 41.31708 | 3.64521 | 28350 ft | 378 kts | 152° |
| 2026-04-24 21:19 | 41.29377 | 3.66112 | 27992 ft | 375 kts | 152° |
| 2026-04-24 21:20 | 41.24763 | 3.69259 | 27272 ft | 370 kts | 152° |
| 2026-04-24 21:20 | 41.22488 | 3.70810 | 26938 ft | 367 kts | 152° |
| 2026-04-24 21:20 | 41.20216 | 3.72357 | 26587 ft | 365 kts | 152° |
| 2026-04-24 21:21 | 41.17959 | 3.73891 | 26235 ft | 363 kts | 152° |
| 2026-04-24 21:21 | 41.15708 | 3.75399 | 25893 ft | 361 kts | 155° |
| 2026-04-24 21:21 | 41.13349 | 3.76513 | 25547 ft | 360 kts | 164° |
| 2026-04-24 21:21 | 41.10934 | 3.77362 | 25207 ft | 358 kts | 165° |
| 2026-04-24 21:22 | 41.08526 | 3.78188 | 24861 ft | 357 kts | 165° |
| 2026-04-24 21:22 | 41.06130 | 3.79029 | 24515 ft | 356 kts | 165° |
| 2026-04-24 21:22 | 41.03737 | 3.79887 | 24172 ft | 355 kts | 165° |
| 2026-04-24 21:22 | 41.01359 | 3.80747 | 23820 ft | 355 kts | 164° |
| 2026-04-24 21:23 | 40.98975 | 3.81610 | 23415 ft | 355 kts | 164° |
| 2026-04-24 21:23 | 40.96597 | 3.82470 | 23041 ft | 353 kts | 164° |
| 2026-04-24 21:23 | 40.94233 | 3.83324 | 22683 ft | 351 kts | 164° |
| 2026-04-24 21:23 | 40.91889 | 3.84171 | 22336 ft | 349 kts | 164° |
| 2026-04-24 21:24 | 40.89585 | 3.85003 | 22003 ft | 347 kts | 164° |
| 2026-04-24 21:24 | 40.87266 | 3.85839 | 21662 ft | 345 kts | 164° |
| 2026-04-24 21:24 | 40.84956 | 3.86672 | 21328 ft | 343 kts | 164° |
| 2026-04-24 21:24 | 40.82663 | 3.87497 | 20994 ft | 341 kts | 165° |
| 2026-04-24 21:25 | 40.80383 | 3.88318 | 20658 ft | 339 kts | 165° |
| 2026-04-24 21:25 | 40.78111 | 3.89135 | 20335 ft | 337 kts | 165° |
| 2026-04-24 21:25 | 40.75850 | 3.89948 | 20009 ft | 336 kts | 165° |
| 2026-04-24 21:25 | 40.73598 | 3.90757 | 19682 ft | 335 kts | 165° |
| 2026-04-24 21:26 | 40.71354 | 3.91562 | 19359 ft | 334 kts | 165° |
| 2026-04-24 21:26 | 40.69118 | 3.92364 | 19033 ft | 333 kts | 165° |
| 2026-04-24 21:26 | 40.66886 | 3.93164 | 18699 ft | 332 kts | 165° |
| 2026-04-24 21:26 | 40.64659 | 3.93962 | 18363 ft | 331 kts | 165° |
| 2026-04-24 21:27 | 40.62444 | 3.94754 | 17996 ft | 330 kts | 165° |
| 2026-04-24 21:27 | 40.60227 | 3.95547 | 17651 ft | 328 kts | 164° |
| 2026-04-24 21:27 | 40.58031 | 3.96333 | 17316 ft | 326 kts | 164° |
| 2026-04-24 21:27 | 40.55848 | 3.97112 | 16990 ft | 324 kts | 164° |
| 2026-04-24 21:28 | 40.53678 | 3.97887 | 16668 ft | 322 kts | 164° |
| 2026-04-24 21:28 | 40.51520 | 3.98657 | 16347 ft | 320 kts | 164° |
| 2026-04-24 21:28 | 40.49376 | 3.99420 | 16039 ft | 318 kts | 164° |
| 2026-04-24 21:28 | 40.47244 | 4.00178 | 15775 ft | 317 kts | 164° |
| 2026-04-24 21:29 | 40.45142 | 4.00925 | 15513 ft | 317 kts | 164° |
| 2026-04-24 21:29 | 40.42977 | 4.01693 | 15251 ft | 318 kts | 164° |
| 2026-04-24 21:29 | 40.40870 | 4.02440 | 14969 ft | 318 kts | 164° |
| 2026-04-24 21:29 | 40.38738 | 4.03197 | 14695 ft | 317 kts | 164° |
| 2026-04-24 21:30 | 40.36612 | 4.03950 | 14422 ft | 316 kts | 164° |
| 2026-04-24 21:30 | 40.34464 | 4.04711 | 14149 ft | 315 kts | 163° |
| 2026-04-24 21:30 | 40.32377 | 4.05449 | 13877 ft | 314 kts | 164° |
| 2026-04-24 21:30 | 40.30269 | 4.06195 | 13573 ft | 313 kts | 163° |
| 2026-04-24 21:31 | 40.28147 | 4.06946 | 13290 ft | 311 kts | 164° |
| 2026-04-24 21:31 | 40.26063 | 4.07682 | 13011 ft | 309 kts | 164° |
| 2026-04-24 21:31 | 40.23996 | 4.08412 | 12741 ft | 307 kts | 164° |
| 2026-04-24 21:31 | 40.21943 | 4.09136 | 12479 ft | 304 kts | 164° |
| 2026-04-24 21:32 | 40.19935 | 4.09845 | 12220 ft | 302 kts | 164° |
| 2026-04-24 21:32 | 40.17912 | 4.10558 | 11961 ft | 300 kts | 164° |
| 2026-04-24 21:32 | 40.15875 | 4.11276 | 11702 ft | 298 kts | 164° |
| 2026-04-24 21:32 | 40.13903 | 4.11970 | 11450 ft | 297 kts | 164° |
| 2026-04-24 21:33 | 40.11886 | 4.12679 | 11191 ft | 295 kts | 164° |
| 2026-04-24 21:33 | 40.10575 | 4.13140 | 11027 ft | 295 kts | 165° |
| 2026-04-24 21:33 | 40.07893 | 4.13049 | 10649 ft | 293 kts | 205° |
| 2026-04-24 21:33 | 40.06365 | 4.11373 | 10434 ft | 288 kts | 240° |
| 2026-04-24 21:34 | 40.05665 | 4.08975 | 10357 ft | 280 kts | 252° |
| 2026-04-24 21:34 | 40.04849 | 4.06681 | 10143 ft | 285 kts | 240° |
| 2026-04-24 21:34 | 40.03690 | 4.04557 | 9891 ft | 289 kts | 231° |
| 2026-04-24 21:34 | 40.02339 | 4.02589 | 9640 ft | 292 kts | 226° |
| 2026-04-24 21:35 | 40.00874 | 4.00759 | 9376 ft | 290 kts | 222° |
| 2026-04-24 21:35 | 39.99323 | 3.99095 | 9107 ft | 288 kts | 217° |
| 2026-04-24 21:35 | 39.97679 | 3.97622 | 8841 ft | 285 kts | 212° |
| 2026-04-24 21:35 | 39.95955 | 3.96370 | 8587 ft | 282 kts | 206° |
| 2026-04-24 21:36 | 39.94162 | 3.95347 | 8339 ft | 280 kts | 201° |
| 2026-04-24 21:36 | 39.92319 | 3.94550 | 8094 ft | 278 kts | 195° |
| 2026-04-24 21:36 | 39.90445 | 3.93957 | 7852 ft | 277 kts | 191° |
| 2026-04-24 21:36 | 39.88557 | 3.93524 | 7611 ft | 275 kts | 187° |
| 2026-04-24 21:37 | 39.86655 | 3.93306 | 7370 ft | 274 kts | 181° |
| 2026-04-24 21:37 | 39.84755 | 3.93360 | 7125 ft | 272 kts | 175° |
| 2026-04-24 21:37 | 39.82881 | 3.93665 | 6892 ft | 271 kts | 169° |
| 2026-04-24 21:37 | 39.81042 | 3.94185 | 6652 ft | 270 kts | 164° |
| 2026-04-24 21:38 | 39.79235 | 3.94902 | 6278 ft | 273 kts | 159° |
| 2026-04-24 21:38 | 39.77473 | 3.95817 | 6005 ft | 271 kts | 155° |
| 2026-04-24 21:38 | 39.75799 | 3.96909 | 5747 ft | 268 kts | 149° |
| 2026-04-24 21:38 | 39.74223 | 3.98171 | 5506 ft | 264 kts | 144° |
| 2026-04-24 21:39 | 39.72756 | 3.99584 | 5270 ft | 261 kts | 139° |
| 2026-04-24 21:39 | 39.71402 | 4.01134 | 5036 ft | 258 kts | 135° |
| 2026-04-24 21:39 | 39.70168 | 4.02800 | 4807 ft | 255 kts | 130° |
| 2026-04-24 21:39 | 39.69055 | 4.04569 | 4565 ft | 252 kts | 126° |
| 2026-04-24 21:40 | 39.68057 | 4.06441 | 4351 ft | 253 kts | 121° |
| 2026-04-24 21:40 | 39.67181 | 4.08399 | 4131 ft | 255 kts | 117° |
| 2026-04-24 21:40 | 39.66415 | 4.10472 | 3905 ft | 255 kts | 112° |
| 2026-04-24 21:40 | 39.65785 | 4.12608 | 3671 ft | 252 kts | 108° |
| 2026-04-24 21:41 | 39.65507 | 4.14809 | 3420 ft | 247 kts | 81° |
| 2026-04-24 21:41 | 39.66230 | 4.16762 | 3209 ft | 242 kts | 44° |
| 2026-04-24 21:41 | 39.67682 | 4.17809 | 2921 ft | 242 kts | 18° |
| 2026-04-24 21:41 | 39.69295 | 4.18343 | 2753 ft | 237 kts | 13° |
| 2026-04-24 21:42 | 39.70911 | 4.18709 | 2566 ft | 232 kts | 10° |
| 2026-04-24 21:42 | 39.72476 | 4.19021 | 2377 ft | 223 kts | 9° |
| 2026-04-24 21:42 | 39.73981 | 4.19327 | 2169 ft | 214 kts | 11° |
| 2026-04-24 21:42 | 39.75422 | 4.19625 | 1971 ft | 206 kts | 11° |
| 2026-04-24 21:43 | 39.76788 | 4.19907 | 1780 ft | 191 kts | 11° |
| 2026-04-24 21:43 | 39.78044 | 4.20166 | 1656 ft | 176 kts | 11° |
| 2026-04-24 21:43 | 39.79213 | 4.20414 | 1458 ft | 166 kts | 11° |
| 2026-04-24 21:43 | 39.80314 | 4.20631 | 1267 ft | 154 kts | 10° |
| 2026-04-24 21:44 | 39.81348 | 4.20840 | 1067 ft | 150 kts | 11° |
| 2026-04-24 21:44 | 39.82386 | 4.21056 | 877 ft | 150 kts | 11° |
| 2026-04-24 21:44 | 39.83412 | 4.21271 | 661 ft | 148 kts | 11° |
| 2026-04-24 21:44 | 39.84428 | 4.21479 | 461 ft | 148 kts | 12° |
| 2026-04-24 21:45 | 39.85433 | 4.21688 | 295 ft | 141 kts | 11° |
| 2026-04-24 21:45 | 39.86279 | 4.21872 | 299 ft | 101 kts | 10° |
| 2026-04-24 21:45 | 39.86569 | 4.22018 | 303 ft | 26 kts | 96° |